Terminal Aerodrome Forecast
Issued by NWS

Home | Current Version | Previous Version | Text Only | Print | Product List | Glossary On
Versions: 1 2 3 4 5 6 7 8 9 10 11 12 13 14 15 16
000
FTUS43 KICT 182200 AAA
TAFCNU
TAF AMD
KCNU 182237Z 1823/1918 07007KT P6SM OVC300
     FM190900 14007KT P6SM OVC250
     FM191400 18009KT P6SM OVC200=

USA.gov is the U.S. government's official web portal to all federal, state and local government web resources and services.